createdAt,value
2018-07-20T05:29:19.391Z,11.4
2018-07-20T05:29:35.817Z,9.9
2018-07-20T05:29:52.240Z,9.2
2018-07-20T05:30:08.660Z,8.6
2018-07-20T05:30:25.080Z,8.8
2018-07-20T05:30:41.534Z,8.8
2018-07-20T05:30:57.975Z,8.4
2018-07-20T05:31:14.378Z,8.6
2018-07-20T05:31:30.798Z,8.7
2018-07-20T05:31:47.224Z,9.3
2018-07-20T05:32:03.641Z,9
2018-07-20T05:32:20.062Z,8.3
2018-07-20T05:32:36.540Z,8.4
2018-07-20T05:32:52.905Z,8.9
2018-07-20T05:33:09.327Z,8.9
2018-07-20T05:33:25.748Z,9.2
2018-07-20T05:33:42.183Z,10.9
2018-07-20T05:33:58.611Z,9.9
2018-07-20T05:34:15.037Z,8.7
2018-07-20T05:34:31.453Z,8.9
2018-07-20T05:34:47.875Z,9.3
2018-07-20T05:35:04.298Z,9.1
2018-07-20T05:35:20.727Z,9.1
2018-07-20T05:35:37.145Z,8.4
2018-07-20T05:35:53.560Z,8.5
2018-07-20T05:36:09.981Z,8.3
2018-07-20T05:36:26.401Z,8.8
2018-07-20T05:36:42.825Z,9.3
2018-07-20T05:36:59.249Z,9.6
2018-07-20T05:37:15.673Z,10.6
2018-07-20T05:37:32.096Z,10.9
2018-07-20T05:37:48.520Z,9
2018-07-20T05:38:04.974Z,8.5
2018-07-20T05:38:21.388Z,8.9
2018-07-20T05:38:37.814Z,10.3
2018-07-20T05:38:54.236Z,9.9
2018-07-20T05:39:10.659Z,10.3
2018-07-20T05:39:27.083Z,10.1
2018-07-20T05:39:43.504Z,9.5
2018-07-20T05:39:59.926Z,8.8
2018-07-20T05:40:16.350Z,8.7
2018-07-20T05:40:32.768Z,8.8
2018-07-20T05:40:49.183Z,9.5
2018-07-20T05:41:05.606Z,9.7
2018-07-20T05:41:22.030Z,10.4
2018-07-20T05:41:38.453Z,8.5
2018-07-20T05:41:54.875Z,11.3
2018-07-20T05:42:11.298Z,12.3
2018-07-20T05:42:27.716Z,12.8
2018-07-20T05:42:44.140Z,10.3
2018-07-20T05:43:00.567Z,11.9
2018-07-20T05:43:17.018Z,11.9
2018-07-20T05:43:33.454Z,10.1
2018-07-20T05:43:49.878Z,8.9
2018-07-20T05:44:06.332Z,9.1
2018-07-20T05:44:22.727Z,10.2
2018-07-20T05:44:39.151Z,12.1
2018-07-20T05:44:55.575Z,12.5
2018-07-20T05:45:11.997Z,11.6
2018-07-20T05:45:28.450Z,10.3
2018-07-20T05:45:44.856Z,9.9
2018-07-20T05:46:01.274Z,11
2018-07-20T05:46:17.697Z,11.2
2018-07-20T05:46:34.120Z,10.1
2018-07-20T05:46:50.544Z,11.2
2018-07-20T05:47:06.967Z,12.3
2018-07-20T05:47:23.389Z,11.2
2018-07-20T05:47:39.811Z,11.9
2018-07-20T05:47:56.235Z,11.1
2018-07-20T05:48:12.658Z,9.7
2018-07-20T05:48:29.105Z,10.3
2018-07-20T05:48:45.530Z,10
2018-07-20T05:49:01.951Z,9.3
2018-07-20T05:49:18.372Z,9.8
2018-07-20T05:49:34.799Z,9.8
2018-07-20T05:49:52.208Z,10
2018-07-20T05:50:08.637Z,10.7
2018-07-20T05:50:25.052Z,9.4
2018-07-20T05:50:41.477Z,9.3
2018-07-20T05:50:57.900Z,9.4
2018-07-20T05:51:14.324Z,11.1
2018-07-20T05:51:30.746Z,11.8
2018-07-20T05:51:47.168Z,11.3
2018-07-20T05:52:03.598Z,11.6
2018-07-20T05:52:20.013Z,12
2018-07-20T05:52:36.437Z,10.3
2018-07-20T05:52:52.861Z,9.8
2018-07-20T05:53:09.287Z,10.1
2018-07-20T05:53:25.731Z,9.4
2018-07-20T05:53:42.154Z,10.9
2018-07-20T05:53:58.577Z,10.9
2018-07-20T05:54:14.998Z,9.3
2018-07-20T05:54:31.423Z,9.4
2018-07-20T05:54:47.848Z,8.6
2018-07-20T05:55:04.276Z,9
2018-07-20T05:55:20.696Z,9.8
2018-07-20T05:55:37.123Z,11
2018-07-20T05:55:53.548Z,11.3
2018-07-20T05:56:09.973Z,8.8
2018-07-20T05:56:26.403Z,9.1
2018-07-20T05:56:42.827Z,9.5
2018-07-20T05:56:59.254Z,11.3
2018-07-20T05:57:15.679Z,10
2018-07-20T05:57:32.102Z,8.6
2018-07-20T05:57:48.524Z,8.7
2018-07-20T05:58:04.948Z,11.2
2018-07-20T05:58:21.371Z,12.3
2018-07-20T05:58:37.810Z,10.2
2018-07-20T05:58:54.232Z,9.5
2018-07-20T05:59:10.663Z,9.4
2018-07-20T05:59:27.082Z,11.1
2018-07-20T05:59:43.508Z,10.1
2018-07-20T05:59:59.933Z,8.8
2018-07-20T06:00:16.359Z,11.6
2018-07-20T06:00:32.783Z,11.1
2018-07-20T06:00:49.210Z,9.9
2018-07-20T06:01:05.637Z,9.3
2018-07-20T06:01:22.056Z,9
2018-07-20T06:01:38.477Z,8.9
2018-07-20T06:01:54.899Z,9.1
2018-07-20T06:02:11.327Z,9.1
2018-07-20T06:02:27.750Z,9.7
2018-07-20T06:02:44.177Z,10
2018-07-20T06:03:00.601Z,10.3
2018-07-20T06:03:18.016Z,8.6
2018-07-20T06:03:34.442Z,9
2018-07-20T06:03:50.904Z,8.7
2018-07-20T06:04:07.442Z,8.8
2018-07-20T06:04:23.748Z,9
2018-07-20T06:04:40.175Z,8.7
2018-07-20T06:04:56.600Z,9
2018-07-20T06:05:13.022Z,8.9
2018-07-20T06:05:29.520Z,9.2
2018-07-20T06:05:45.867Z,11
2018-07-20T06:06:02.292Z,10.2
2018-07-20T06:06:18.716Z,9.3
2018-07-20T06:06:35.138Z,8.8
2018-07-20T06:06:51.629Z,9.3
2018-07-20T06:07:07.983Z,10.8
2018-07-20T06:07:24.409Z,9.3
2018-07-20T06:07:40.844Z,10.1
2018-07-20T06:07:57.266Z,9.4
2018-07-20T06:08:13.692Z,9.1
2018-07-20T06:08:30.115Z,9.5
2018-07-20T06:08:46.593Z,11.4
2018-07-20T06:09:02.992Z,11
2018-07-20T06:09:19.417Z,10.3
2018-07-20T06:09:35.840Z,11.1
2018-07-20T06:09:52.264Z,10.8
2018-07-20T06:10:08.689Z,9.8
2018-07-20T06:10:25.112Z,8.7
2018-07-20T06:10:41.542Z,10.7
2018-07-20T06:10:57.967Z,11.3
2018-07-20T06:11:14.393Z,10.7
2018-07-20T06:11:30.816Z,11.4
2018-07-20T06:11:47.241Z,10.9
2018-07-20T06:12:03.666Z,11.4
2018-07-20T06:12:20.091Z,10.9
2018-07-20T06:12:36.513Z,9.9
2018-07-20T06:12:52.936Z,10.7
2018-07-20T06:13:09.392Z,10
2018-07-20T06:13:25.814Z,10.1
2018-07-20T06:13:42.238Z,10.2
2018-07-20T06:13:58.681Z,9.8
2018-07-20T06:14:15.116Z,9.7
2018-07-20T06:14:31.533Z,10.1
2018-07-20T06:14:47.959Z,10.4
2018-07-20T06:15:04.385Z,10.3
2018-07-20T06:15:20.802Z,10.7
2018-07-20T06:15:37.226Z,10.2
2018-07-20T06:15:53.650Z,10.5
2018-07-20T06:16:10.125Z,10.6
2018-07-20T06:16:26.553Z,10.4
2018-07-20T06:16:42.975Z,10
2018-07-20T06:16:59.403Z,9.6
2018-07-20T06:17:15.827Z,9.6
2018-07-20T06:17:32.253Z,11.5
2018-07-20T06:17:48.677Z,12.5
2018-07-20T06:18:05.102Z,9.8
2018-07-20T06:18:21.522Z,9.6
2018-07-20T06:18:37.945Z,9.8
2018-07-20T06:18:54.412Z,9.9
2018-07-20T06:19:10.830Z,10.3
2018-07-20T06:19:27.252Z,10.6
2018-07-20T06:19:43.677Z,11
2018-07-20T06:20:00.101Z,10.9
2018-07-20T06:20:16.524Z,8.6
2018-07-20T06:20:32.950Z,8.3
2018-07-20T06:20:49.375Z,7.9
2018-07-20T06:21:05.800Z,8.2
2018-07-20T06:21:22.222Z,7.1
2018-07-20T06:21:38.635Z,6.9
2018-07-20T06:21:55.057Z,7.7
2018-07-20T06:22:11.490Z,7.8
2018-07-20T06:22:27.909Z,10.3
2018-07-20T06:22:44.332Z,9.5
2018-07-20T06:23:00.755Z,9.6
2018-07-20T06:23:17.183Z,9.9
2018-07-20T06:23:33.699Z,9
2018-07-20T06:23:50.098Z,7.2
2018-07-20T06:24:06.471Z,7.4
2018-07-20T06:24:22.895Z,8.4
2018-07-20T06:24:39.319Z,7.4
2018-07-20T06:24:55.742Z,6.6
2018-07-20T06:25:12.171Z,6.7
2018-07-20T06:25:28.593Z,6.7
2018-07-20T06:25:45.016Z,7.7
2018-07-20T06:26:01.439Z,7.3
2018-07-20T06:26:17.863Z,7.9
2018-07-20T06:26:34.288Z,7.7
2018-07-20T06:26:50.714Z,6.7
2018-07-20T06:27:07.130Z,6.7
2018-07-20T06:27:23.557Z,6.6
2018-07-20T06:27:39.975Z,7.3
2018-07-20T06:27:56.399Z,7.2
2018-07-20T06:28:12.824Z,7
2018-07-20T06:28:29.249Z,8.1
2018-07-20T06:28:45.672Z,9.7
2018-07-20T06:29:02.117Z,8.5
2018-07-20T06:29:18.541Z,8.5
2018-07-20T06:29:35.017Z,8.2
2018-07-20T06:29:51.395Z,8.4
2018-07-20T06:30:07.818Z,8.8
2018-07-20T06:30:24.239Z,7.2
2018-07-20T06:30:40.661Z,6.5
2018-07-20T06:30:57.093Z,7.5
2018-07-20T06:31:13.521Z,8.2
2018-07-20T06:31:29.947Z,7.9
2018-07-20T06:31:46.369Z,7
2018-07-20T06:32:02.797Z,8.4
2018-07-20T06:32:19.218Z,9.2
2018-07-20T06:32:35.641Z,8.9
2018-07-20T06:32:52.064Z,7.6
2018-07-20T06:33:08.487Z,7.2
2018-07-20T06:33:24.910Z,6.9
2018-07-20T06:33:41.334Z,6.2
2018-07-20T06:33:57.758Z,6.9
2018-07-20T06:34:14.216Z,6.8
2018-07-20T06:34:30.644Z,6.6
2018-07-20T06:34:47.068Z,6.7
2018-07-20T06:35:03.492Z,7
2018-07-20T06:35:19.913Z,6.4
2018-07-20T06:35:36.338Z,6.7
2018-07-20T06:35:52.762Z,6.9
2018-07-20T06:36:09.186Z,7
2018-07-20T06:36:25.608Z,7.4
2018-07-20T06:36:42.040Z,7.4
2018-07-20T06:36:58.473Z,6.8
2018-07-20T06:37:14.886Z,8.4
2018-07-20T06:37:31.309Z,7.6
2018-07-20T06:37:47.730Z,6.1
2018-07-20T06:38:04.152Z,6
2018-07-20T06:38:20.587Z,7
2018-07-20T06:38:37.014Z,7.2
2018-07-20T06:38:53.437Z,6.6
2018-07-20T06:39:09.879Z,6.4
2018-07-20T06:39:26.305Z,6.1
2018-07-20T06:39:42.730Z,6.5
2018-07-20T06:39:59.156Z,7.1
2018-07-20T06:40:15.577Z,6.3
2018-07-20T06:40:32.001Z,6.6
2018-07-20T06:40:48.452Z,6.9
2018-07-20T06:41:04.848Z,6.5
2018-07-20T06:41:21.270Z,6.6
2018-07-20T06:41:37.692Z,6.2
2018-07-20T06:41:54.122Z,6.5
2018-07-20T06:42:10.548Z,8.1
2018-07-20T06:42:26.973Z,8.3
2018-07-20T06:42:43.397Z,8.4
2018-07-20T06:42:59.820Z,7.9
2018-07-20T06:43:16.245Z,6.9
2018-07-20T06:43:32.681Z,6.7
2018-07-20T06:43:49.104Z,7.5
2018-07-20T06:44:05.532Z,7.2
2018-07-20T06:44:21.993Z,6.4
2018-07-20T06:44:38.420Z,7
2018-07-20T06:44:54.843Z,6.5
2018-07-20T06:45:11.267Z,6.3
2018-07-20T06:45:27.690Z,7
2018-07-20T06:45:44.121Z,6.2
2018-07-20T06:46:00.548Z,7.6
2018-07-20T06:46:16.974Z,7.7
2018-07-20T06:46:33.398Z,6.3
2018-07-20T06:46:49.823Z,6.9
2018-07-20T06:47:06.247Z,7.3
2018-07-20T06:47:22.673Z,6.4
2018-07-20T06:47:39.096Z,6.7
2018-07-20T06:47:55.522Z,6.1
2018-07-20T06:48:11.945Z,6.7
2018-07-20T06:48:28.383Z,8.1
2018-07-20T06:48:45.802Z,6.2
2018-07-20T06:49:02.234Z,6.4
2018-07-20T06:49:18.677Z,8
2018-07-20T06:49:35.165Z,9.5
2018-07-20T06:49:51.597Z,8.4
2018-07-20T06:50:07.961Z,7.5
2018-07-20T06:50:24.391Z,7.7
2018-07-20T06:50:40.819Z,7.9
2018-07-20T06:50:57.240Z,8.2
2018-07-20T06:51:13.665Z,8
2018-07-20T06:51:30.088Z,7
2018-07-20T06:51:46.511Z,7.5
2018-07-20T06:52:02.939Z,6.8
2018-07-20T06:52:19.418Z,6.1
2018-07-20T06:52:35.842Z,6.4
2018-07-20T06:52:52.271Z,9.6
2018-07-20T06:53:08.681Z,9.9
2018-07-20T06:53:25.105Z,6.7
2018-07-20T06:53:41.532Z,7
2018-07-20T06:53:57.952Z,7.7
2018-07-20T06:54:14.376Z,6.8
2018-07-20T06:54:30.820Z,7.4
2018-07-20T06:54:47.243Z,7.8
2018-07-20T06:55:03.668Z,7.5
2018-07-20T06:55:20.095Z,6.9
2018-07-20T06:55:36.516Z,6.8
2018-07-20T06:55:52.961Z,7.1
2018-07-20T06:56:09.363Z,7.2
2018-07-20T06:56:25.788Z,7.1
2018-07-20T06:56:42.214Z,7
2018-07-20T06:56:58.625Z,7.1
2018-07-20T06:57:15.048Z,7.2
2018-07-20T06:57:31.471Z,7.3
2018-07-20T06:57:47.893Z,7.1
2018-07-20T06:58:04.315Z,7
2018-07-20T06:58:20.737Z,6.8
2018-07-20T06:58:37.165Z,7.6
2018-07-20T06:58:53.594Z,9
2018-07-20T06:59:10.022Z,7.4
2018-07-20T06:59:26.462Z,6.8
2018-07-20T06:59:43.877Z,6.8
2018-07-20T07:00:00.300Z,6.6
2018-07-20T07:00:16.724Z,6.7
2018-07-20T07:00:33.147Z,6.6
2018-07-20T07:00:49.570Z,6.1
2018-07-20T07:01:05.992Z,5.9
2018-07-20T07:01:22.415Z,6.9
2018-07-20T07:01:38.838Z,8.5
2018-07-20T07:01:55.259Z,8.5
2018-07-20T07:02:11.681Z,6.3
2018-07-20T07:02:28.104Z,6.1
2018-07-20T07:02:44.530Z,6.5
2018-07-20T07:03:00.957Z,8.7
2018-07-20T07:03:17.385Z,7.9
2018-07-20T07:03:33.807Z,7.3
2018-07-20T07:03:50.231Z,6.7
2018-07-20T07:04:06.644Z,6.9
2018-07-20T07:04:23.074Z,7.8
2018-07-20T07:04:39.518Z,9.2
2018-07-20T07:04:55.943Z,7.6
2018-07-20T07:05:12.369Z,6.8
2018-07-20T07:05:28.787Z,6.5
2018-07-20T07:05:45.211Z,6.3
2018-07-20T07:06:01.636Z,7.2
2018-07-20T07:06:18.062Z,7.6
2018-07-20T07:06:34.497Z,6.5
2018-07-20T07:06:50.921Z,6.1
2018-07-20T07:07:07.353Z,6.4
2018-07-20T07:07:23.777Z,6.4
2018-07-20T07:07:40.207Z,6.5
2018-07-20T07:07:56.611Z,5.7
2018-07-20T07:08:13.040Z,6.4
2018-07-20T07:08:29.452Z,6.6
2018-07-20T07:08:45.877Z,6.8
2018-07-20T07:09:02.304Z,6.8
2018-07-20T07:09:18.728Z,9.5
2018-07-20T07:09:35.170Z,9.2
2018-07-20T07:09:51.595Z,8.1
2018-07-20T07:10:08.022Z,9.4
2018-07-20T07:10:24.446Z,10.8
2018-07-20T07:10:40.870Z,7.9
2018-07-20T07:10:57.298Z,7.5
2018-07-20T07:11:13.720Z,7.8
2018-07-20T07:11:30.142Z,6.8
2018-07-20T07:11:46.564Z,6.7
2018-07-20T07:12:02.988Z,6.6
2018-07-20T07:12:19.412Z,6.6
2018-07-20T07:12:35.833Z,6.3
2018-07-20T07:12:52.258Z,6.5
2018-07-20T07:13:08.681Z,6.3
2018-07-20T07:13:25.107Z,6.9
2018-07-20T07:13:41.528Z,7.5
2018-07-20T07:13:57.949Z,7.3
2018-07-20T07:14:14.373Z,6.9
2018-07-20T07:14:30.811Z,7.2
2018-07-20T07:14:48.226Z,6.8
2018-07-20T07:15:04.699Z,6.8
2018-07-20T07:15:21.073Z,6.4
2018-07-20T07:15:37.495Z,6.6
2018-07-20T07:15:53.916Z,8.1
2018-07-20T07:16:10.339Z,7.8
2018-07-20T07:16:26.765Z,7.2
2018-07-20T07:16:43.179Z,7.6
2018-07-20T07:16:59.600Z,6.9
2018-07-20T07:17:16.029Z,7.2
2018-07-20T07:17:32.446Z,7.9
2018-07-20T07:17:48.870Z,8.4
2018-07-20T07:18:05.294Z,6.3
2018-07-20T07:18:21.718Z,6.4
2018-07-20T07:18:38.142Z,6.3
2018-07-20T07:18:54.566Z,6
2018-07-20T07:19:11.001Z,6.8
2018-07-20T07:19:27.431Z,6.5
2018-07-20T07:19:43.892Z,7.3
2018-07-20T07:20:00.309Z,7.7
2018-07-20T07:20:16.731Z,7.1
2018-07-20T07:20:33.153Z,6.3
2018-07-20T07:20:49.580Z,6.4
2018-07-20T07:21:06.005Z,6.1
2018-07-20T07:21:22.430Z,7.1
2018-07-20T07:21:38.852Z,7.8
2018-07-20T07:21:55.268Z,7.2
2018-07-20T07:22:11.712Z,7
2018-07-20T07:22:28.114Z,7
2018-07-20T07:22:44.536Z,6.9
2018-07-20T07:23:00.959Z,7.3
2018-07-20T07:23:17.382Z,6
2018-07-20T07:23:33.870Z,5.9
2018-07-20T07:23:50.227Z,6.4
2018-07-20T07:24:06.657Z,6.8
2018-07-20T07:24:23.082Z,6.7
2018-07-20T07:24:39.507Z,6.5
2018-07-20T07:24:55.944Z,7.2
2018-07-20T07:25:12.369Z,6.7
2018-07-20T07:25:28.797Z,6.5
2018-07-20T07:25:45.218Z,6.6
2018-07-20T07:26:01.740Z,6.5
2018-07-20T07:26:18.065Z,7.4
2018-07-20T07:26:34.487Z,7.7
2018-07-20T07:26:50.909Z,8
2018-07-20T07:27:07.347Z,7
2018-07-20T07:27:23.771Z,6.4
2018-07-20T07:27:40.200Z,7.3
2018-07-20T07:27:56.625Z,8.5
2018-07-20T07:28:13.050Z,8.2
2018-07-20T07:28:29.472Z,7.5
2018-07-20T07:28:45.895Z,7
2018-07-20T07:29:02.322Z,6.7
2018-07-20T07:29:18.781Z,6.8
2018-07-20T07:29:35.168Z,7
2018-07-20T07:29:51.611Z,6.7
2018-07-20T07:30:08.039Z,7.3
2018-07-20T07:30:24.460Z,7.6
2018-07-20T07:30:40.889Z,7.1
2018-07-20T07:30:57.311Z,6.5
2018-07-20T07:31:13.731Z,6.5
2018-07-20T07:31:30.157Z,7.1
2018-07-20T07:31:46.604Z,7.9
2018-07-20T07:32:03.027Z,7.5
2018-07-20T07:32:19.450Z,8.3
2018-07-20T07:32:35.874Z,8.7
2018-07-20T07:32:52.298Z,9.4
2018-07-20T07:33:08.721Z,9.7
2018-07-20T07:33:25.146Z,8.2
2018-07-20T07:33:41.571Z,8.9
2018-07-20T07:33:57.995Z,10.9
2018-07-20T07:34:14.418Z,9.9
2018-07-20T07:34:30.843Z,9.1
2018-07-20T07:34:47.307Z,8.5
2018-07-20T07:35:03.734Z,10.1
2018-07-20T07:35:20.158Z,9.6
2018-07-20T07:35:36.586Z,7.3
2018-07-20T07:35:53.088Z,7.8
2018-07-20T07:36:09.431Z,7.9
2018-07-20T07:36:25.855Z,8.6
2018-07-20T07:36:42.280Z,7.4
2018-07-20T07:36:58.704Z,7
2018-07-20T07:37:15.133Z,10.3
2018-07-20T07:37:31.554Z,9.9
2018-07-20T07:37:47.984Z,7.1
2018-07-20T07:38:04.414Z,7.7
2018-07-20T07:38:20.835Z,6.6
2018-07-20T07:38:37.262Z,6.9
2018-07-20T07:38:53.688Z,8.4
2018-07-20T07:39:10.113Z,7.9
2018-07-20T07:39:26.536Z,8.4
2018-07-20T07:39:42.961Z,8
2018-07-20T07:39:59.402Z,7.9
2018-07-20T07:40:15.824Z,9.3
2018-07-20T07:40:32.250Z,9.5
2018-07-20T07:40:48.676Z,7.6
2018-07-20T07:41:05.098Z,6.6
2018-07-20T07:41:21.531Z,6.9
2018-07-20T07:41:37.954Z,7.9
2018-07-20T07:41:54.383Z,7.5
2018-07-20T07:42:10.815Z,7.3
2018-07-20T07:42:28.232Z,7.7
2018-07-20T07:42:44.657Z,7.6
2018-07-20T07:43:01.084Z,8.4
2018-07-20T07:43:17.506Z,8.3
2018-07-20T07:43:33.933Z,7.1
2018-07-20T07:43:50.384Z,7
2018-07-20T07:44:06.811Z,6.7
2018-07-20T07:44:23.233Z,6.8
2018-07-20T07:44:39.657Z,7.1
2018-07-20T07:44:56.109Z,7.9
2018-07-20T07:45:12.531Z,9
2018-07-20T07:45:28.955Z,9.1
2018-07-20T07:45:45.380Z,8.2
2018-07-20T07:46:01.817Z,7.2
2018-07-20T07:46:18.238Z,7.2
2018-07-20T07:46:34.667Z,7.9
2018-07-20T07:46:51.089Z,8.1
2018-07-20T07:47:07.517Z,9.3
2018-07-20T07:47:23.941Z,9.4
2018-07-20T07:47:40.365Z,7.9
2018-07-20T07:47:56.796Z,7.4
2018-07-20T07:48:13.218Z,7.8
2018-07-20T07:48:29.646Z,8.5
2018-07-20T07:48:46.070Z,8.5
2018-07-20T07:49:02.493Z,9.6
2018-07-20T07:49:18.936Z,7.9
2018-07-20T07:49:35.342Z,6.8
2018-07-20T07:49:51.765Z,8.5
2018-07-20T07:50:08.210Z,9.3
2018-07-20T07:50:24.636Z,8
2018-07-20T07:50:41.054Z,8.5
2018-07-20T07:50:57.478Z,8.6
2018-07-20T07:51:14.895Z,8.8
2018-07-20T07:51:31.320Z,9.1
2018-07-20T07:51:47.746Z,6.7
2018-07-20T07:52:04.167Z,7
2018-07-20T07:52:20.595Z,7.3
2018-07-20T07:52:37.014Z,8.1
2018-07-20T07:52:53.439Z,8
2018-07-20T07:53:09.864Z,7.1
2018-07-20T07:53:26.283Z,8.2
2018-07-20T07:53:42.712Z,7.5
2018-07-20T07:53:59.138Z,7.8
2018-07-20T07:54:15.561Z,8.5
2018-07-20T07:54:31.986Z,8.5
2018-07-20T07:54:48.467Z,8.9
2018-07-20T07:55:04.853Z,6.4
2018-07-20T07:55:21.276Z,8.5
2018-07-20T07:55:37.701Z,9.4
2018-07-20T07:55:54.121Z,7.5
2018-07-20T07:56:10.545Z,9.6
2018-07-20T07:56:26.968Z,11.3
2018-07-20T07:56:43.390Z,9.6
2018-07-20T07:56:59.838Z,7.8
2018-07-20T07:57:16.265Z,7.8
2018-07-20T07:57:32.689Z,8
2018-07-20T07:57:49.112Z,8.1
2018-07-20T07:58:05.537Z,7.7
2018-07-20T07:58:21.960Z,8.3
2018-07-20T07:58:38.383Z,8.3
2018-07-20T07:58:54.813Z,8.3
2018-07-20T07:59:11.237Z,8.8
2018-07-20T07:59:27.661Z,10.8
2018-07-20T07:59:44.085Z,8.8
2018-07-20T08:00:00.515Z,6.7
2018-07-20T08:00:16.950Z,6.7
2018-07-20T08:00:33.728Z,7.3
2018-07-20T08:00:50.153Z,7
2018-07-20T08:01:06.576Z,7.7
2018-07-20T08:01:23.001Z,7.8
2018-07-20T08:01:39.423Z,7
2018-07-20T08:01:55.846Z,8.5
2018-07-20T08:02:12.277Z,7.8
2018-07-20T08:02:28.702Z,7.5
2018-07-20T08:02:45.127Z,7.8
2018-07-20T08:03:01.566Z,9.2
2018-07-20T08:03:17.973Z,7.9
2018-07-20T08:03:34.446Z,7.2
2018-07-20T08:03:50.819Z,8.2
2018-07-20T08:04:07.253Z,8.7
2018-07-20T08:04:23.677Z,8.3
2018-07-20T08:04:40.101Z,9.5
2018-07-20T08:04:56.533Z,8
2018-07-20T08:05:12.981Z,8.8
2018-07-20T08:05:29.481Z,8.6
2018-07-20T08:05:45.824Z,7.3
2018-07-20T08:06:02.250Z,8
2018-07-20T08:06:18.676Z,8
2018-07-20T08:06:35.102Z,7.4
2018-07-20T08:06:51.521Z,6.5
2018-07-20T08:07:07.949Z,7.6
2018-07-20T08:07:24.373Z,7.7
2018-07-20T08:07:40.799Z,7.7
2018-07-20T08:07:57.222Z,6.7
2018-07-20T08:08:14.635Z,6.8
2018-07-20T08:08:31.058Z,6.4
2018-07-20T08:08:47.483Z,6.8
2018-07-20T08:09:03.909Z,6.9
2018-07-20T08:09:20.332Z,6.1
2018-07-20T08:09:36.828Z,7.2
2018-07-20T08:09:53.319Z,7.9
2018-07-20T08:10:09.765Z,8.5
2018-07-20T08:10:26.097Z,6.2
2018-07-20T08:10:42.477Z,6.8
2018-07-20T08:10:58.900Z,7.5
2018-07-20T08:11:15.323Z,8.3
2018-07-20T08:11:31.752Z,11.3
2018-07-20T08:11:48.172Z,10.5
2018-07-20T08:12:04.598Z,6.8
2018-07-20T08:12:21.023Z,6.4
2018-07-20T08:12:37.446Z,6.1
2018-07-20T08:12:54.859Z,6.6
2018-07-20T08:13:11.286Z,9
2018-07-20T08:13:27.712Z,8.6
2018-07-20T08:13:44.127Z,6.6
2018-07-20T08:14:00.553Z,6.9
2018-07-20T08:14:16.979Z,7.2
2018-07-20T08:14:33.402Z,7.6
2018-07-20T08:14:49.829Z,7
2018-07-20T08:15:06.247Z,5.9
2018-07-20T08:15:22.684Z,6.1
2018-07-20T08:15:39.169Z,6.6
2018-07-20T08:15:55.536Z,5.6
2018-07-20T08:16:11.962Z,6
2018-07-20T08:16:28.385Z,7.4
2018-07-20T08:16:44.809Z,8.4
2018-07-20T08:17:01.255Z,6.8
2018-07-20T08:17:17.675Z,6.4
2018-07-20T08:17:34.101Z,7.3
2018-07-20T08:17:50.525Z,6.8
2018-07-20T08:18:06.949Z,6.9
2018-07-20T08:18:23.373Z,7.6
2018-07-20T08:18:39.800Z,7.5
2018-07-20T08:18:56.229Z,6.4
2018-07-20T08:19:12.657Z,6.7
2018-07-20T08:19:29.084Z,8.5
2018-07-20T08:19:45.510Z,7.3
2018-07-20T08:20:01.937Z,6.8
2018-07-20T08:20:19.383Z,6.4
2018-07-20T08:20:35.809Z,5.6
2018-07-20T08:20:52.231Z,6
2018-07-20T08:21:08.657Z,6.9
2018-07-20T08:21:25.081Z,7.4
2018-07-20T08:21:42.497Z,6.6
2018-07-20T08:21:58.924Z,7
2018-07-20T08:22:15.349Z,6.2
2018-07-20T08:22:31.778Z,6.8
2018-07-20T08:22:48.210Z,6.5
2018-07-20T08:23:05.617Z,6.4
2018-07-20T08:23:22.043Z,6.8
2018-07-20T08:23:38.468Z,6.5
2018-07-20T08:23:54.895Z,6.3
2018-07-20T08:24:11.320Z,6.1
2018-07-20T08:24:27.745Z,6.2
2018-07-20T08:24:44.168Z,6.9
2018-07-20T08:25:00.596Z,6.9
2018-07-20T08:25:17.036Z,5.9
2018-07-20T08:25:33.466Z,7.6
2018-07-20T08:25:49.888Z,7.8
2018-07-20T08:26:06.310Z,5.7
2018-07-20T08:26:22.735Z,6.3
2018-07-20T08:26:39.166Z,5.9
2018-07-20T08:26:55.586Z,5.2
2018-07-20T08:27:12.014Z,5.5
2018-07-20T08:27:28.438Z,6.1
2018-07-20T08:27:44.864Z,6.3
2018-07-20T08:28:01.289Z,6.5
2018-07-20T08:28:17.718Z,6.7
2018-07-20T08:28:34.138Z,7.2
2018-07-20T08:28:50.564Z,8
2018-07-20T08:29:06.976Z,6.6
2018-07-20T08:29:23.481Z,5.6
2018-07-20T08:29:39.829Z,6.2
2018-07-20T08:29:57.246Z,7.1
2018-07-20T08:30:13.666Z,6.7
2018-07-20T08:30:30.114Z,5.9
2018-07-20T08:30:46.534Z,6
2018-07-20T08:31:02.961Z,6
2018-07-20T08:31:19.381Z,5.7
2018-07-20T08:31:35.807Z,5.3
2018-07-20T08:31:52.229Z,5.6
2018-07-20T08:32:08.656Z,6.7
2018-07-20T08:32:25.080Z,6.8
2018-07-20T08:32:41.507Z,6.8
2018-07-20T08:32:57.933Z,8.7
2018-07-20T08:33:14.357Z,7.7
2018-07-20T08:33:30.780Z,7.1
2018-07-20T08:33:47.203Z,7.4
2018-07-20T08:34:03.636Z,6.3
2018-07-20T08:34:20.053Z,6
2018-07-20T08:34:36.474Z,6.2
2018-07-20T08:34:52.899Z,6.3
2018-07-20T08:35:09.326Z,5.9
2018-07-20T08:35:25.768Z,6.7
2018-07-20T08:35:42.193Z,6.9
2018-07-20T08:35:58.619Z,7.7
2018-07-20T08:36:15.045Z,6.5
2018-07-20T08:36:31.470Z,6.6
2018-07-20T08:36:47.894Z,5.5
2018-07-20T08:37:04.322Z,5.6
2018-07-20T08:37:20.734Z,6.6
2018-07-20T08:37:37.156Z,6.7
2018-07-20T08:37:53.575Z,6.3
2018-07-20T08:38:09.999Z,5.6
2018-07-20T08:38:26.424Z,5.3
2018-07-20T08:38:42.850Z,5
2018-07-20T08:38:59.275Z,5.2
2018-07-20T08:39:16.690Z,5.4
2018-07-20T08:39:33.118Z,5.6
2018-07-20T08:39:49.538Z,6.1
2018-07-20T08:40:05.967Z,6.2
2018-07-20T08:40:22.389Z,6.6
2018-07-20T08:40:38.847Z,8
2018-07-20T08:40:55.272Z,7.6
2018-07-20T08:41:11.729Z,7.1
2018-07-20T08:41:28.124Z,6
2018-07-20T08:41:44.547Z,6.4
2018-07-20T08:42:00.972Z,7.2
2018-07-20T08:42:17.398Z,5.7
2018-07-20T08:42:33.834Z,7.4
2018-07-20T08:42:50.252Z,7.2
2018-07-20T08:43:06.676Z,5.6
2018-07-20T08:43:23.101Z,5.3
2018-07-20T08:43:39.528Z,5.6
2018-07-20T08:43:55.952Z,6.7
2018-07-20T08:44:12.375Z,7.9
2018-07-20T08:44:28.801Z,6.8
2018-07-20T08:44:45.226Z,6.4
2018-07-20T08:45:01.652Z,6.6
2018-07-20T08:45:18.089Z,6
2018-07-20T08:45:34.533Z,5.9
2018-07-20T08:45:50.961Z,7.1
2018-07-20T08:46:07.397Z,6.7
2018-07-20T08:46:23.865Z,5.3
2018-07-20T08:46:40.295Z,5.5
2018-07-20T08:46:56.659Z,6
2018-07-20T08:47:13.091Z,6.2
2018-07-20T08:47:29.517Z,7.2
2018-07-20T08:47:45.940Z,6
2018-07-20T08:48:02.365Z,5.3
2018-07-20T08:48:18.788Z,5.2
2018-07-20T08:48:35.213Z,6.2
2018-07-20T08:48:51.638Z,6.4
2018-07-20T08:49:08.063Z,5.6
2018-07-20T08:49:24.485Z,5.6
2018-07-20T08:49:40.911Z,5.6
2018-07-20T08:49:57.338Z,5.7
2018-07-20T08:50:13.774Z,6
2018-07-20T08:50:30.199Z,5.4
2018-07-20T08:50:46.638Z,5.4
2018-07-20T08:51:03.064Z,5.9
2018-07-20T08:51:19.489Z,6.6
2018-07-20T08:51:35.913Z,7.2
2018-07-20T08:51:52.367Z,6.9
2018-07-20T08:52:08.761Z,6.9
2018-07-20T08:52:25.188Z,7
2018-07-20T08:52:41.614Z,5.9
2018-07-20T08:52:58.037Z,5.5
2018-07-20T08:53:14.464Z,6.1
2018-07-20T08:53:30.890Z,6.4
2018-07-20T08:53:47.316Z,6.1
2018-07-20T08:54:04.786Z,5.6
2018-07-20T08:54:21.157Z,5.7
2018-07-20T08:54:37.582Z,6.5
2018-07-20T08:54:54.012Z,5.7
2018-07-20T08:55:10.440Z,5.5
2018-07-20T08:55:26.856Z,6.1
2018-07-20T08:55:43.297Z,6.4
2018-07-20T08:55:59.723Z,5.6
2018-07-20T08:56:16.149Z,5.8
2018-07-20T08:56:32.570Z,7
2018-07-20T08:56:48.996Z,6.4
2018-07-20T08:57:05.423Z,4.9
2018-07-20T08:57:21.849Z,5.1
2018-07-20T08:57:38.273Z,5.7
2018-07-20T08:57:54.697Z,5.9
2018-07-20T08:58:11.121Z,6.9
2018-07-20T08:58:27.602Z,5.7
2018-07-20T08:58:43.964Z,5.4
2018-07-20T08:59:00.416Z,5.3
2018-07-20T08:59:16.809Z,5.5
2018-07-20T08:59:33.236Z,5.6
2018-07-20T08:59:49.697Z,5.7
2018-07-20T09:00:06.176Z,5.3
2018-07-20T09:00:22.504Z,5.3
2018-07-20T09:00:38.930Z,5.6
2018-07-20T09:00:55.372Z,5.3
2018-07-20T09:01:11.803Z,5.1
2018-07-20T09:01:28.227Z,5.2
2018-07-20T09:01:44.651Z,5.5
2018-07-20T09:02:01.078Z,5.2
2018-07-20T09:02:17.501Z,5
2018-07-20T09:02:33.928Z,5.2
2018-07-20T09:02:50.354Z,5.8
2018-07-20T09:03:06.782Z,5.7
2018-07-20T09:03:24.190Z,5.9
2018-07-20T09:03:40.708Z,6.1
2018-07-20T09:03:57.043Z,5.7
2018-07-20T09:04:13.466Z,5.2
2018-07-20T09:04:29.895Z,5.1
2018-07-20T09:04:46.316Z,5.5
2018-07-20T09:05:02.776Z,5.5
2018-07-20T09:05:19.200Z,5.3
2018-07-20T09:05:35.623Z,5
2018-07-20T09:05:52.072Z,5.1
2018-07-20T09:06:08.496Z,5.1
2018-07-20T09:06:24.921Z,5.5
2018-07-20T09:06:41.345Z,5.8
2018-07-20T09:06:57.769Z,5.7
2018-07-20T09:07:15.185Z,5.7
2018-07-20T09:07:31.610Z,6.1
2018-07-20T09:07:48.032Z,5.5
2018-07-20T09:08:04.450Z,5.6
2018-07-20T09:08:20.873Z,5.6
2018-07-20T09:08:37.298Z,5.2
2018-07-20T09:08:53.723Z,5.2
2018-07-20T09:09:10.148Z,5.2
2018-07-20T09:09:26.572Z,5.4
2018-07-20T09:09:42.996Z,5.1
2018-07-20T09:09:59.420Z,5.5
2018-07-20T09:10:15.843Z,5.9
2018-07-20T09:10:32.269Z,5.3
2018-07-20T09:10:48.696Z,5.2
2018-07-20T09:11:05.156Z,6
2018-07-20T09:11:21.580Z,5.5
2018-07-20T09:11:38.008Z,4.8
2018-07-20T09:11:54.431Z,5.5
2018-07-20T09:12:10.857Z,5.6
2018-07-20T09:12:27.281Z,5.9
2018-07-20T09:12:43.705Z,5.9
2018-07-20T09:13:00.132Z,5.2
2018-07-20T09:13:16.557Z,5
2018-07-20T09:13:33.051Z,4.9
2018-07-20T09:13:49.522Z,5.1
2018-07-20T09:14:05.835Z,5.2
2018-07-20T09:14:22.259Z,5.9
2018-07-20T09:14:38.687Z,6.4
2018-07-20T09:14:55.109Z,5.5
2018-07-20T09:15:11.534Z,5.4
2018-07-20T09:15:27.959Z,5.5
2018-07-20T09:15:44.382Z,5.7
2018-07-20T09:16:00.852Z,5.5
2018-07-20T09:16:17.278Z,5.5